Minerva Anna — SVNP — position and weather

sailwx.info

Track history (hours):
 
Tides and Currents Weather Stations Pressure Air Temp Water Temp Dewpoint Dewpoint Depression Visibility Wind Speed Wind Dir Waves Ship Positions

Minerva Anna

Last reported at 2014-Aug-29 05:07 UTC. Time now 2014-Aug-29 08:00 UTC.
Position N 28°08' W 015°25'.

Length 183 m; draft 12.5 m.

Type: Ship. MMSI: 240729000.

Date/timePositionNaut miles runAvg speedWind from/ knotsBaromVisibWave heightAir tempDewpointWater temp
2014-Aug-29 05:07N 28°08' W 015°25'  
2014-Aug-25 05:25N 39°19' W 011°46'  
2014-Aug-22 04:33N 50°25' W 000°27'2210.9
2014-Aug-22 02:33N 50°31' E 000°06'1211.8
2014-Aug-22 01:33N 50°34' E 000°24'1111.6
2014-Aug-22 00:33N 50°39' E 000°40'1111.2
2014-Aug-21 23:33N 50°46' E 000°54'1110.4
2014-Aug-21 22:33N 50°52' E 001°07'10 9.6
2014-Aug-21 21:32N 50°59' E 001°18'9 9.1
2014-Aug-21 20:33N 51°05' E 001°29'10 9.9
2014-Aug-21 19:33N 51°11' E 001°41'1111.1
2014-Aug-21 18:33N 51°20' E 001°51'1312.7
2014-Aug-21 17:33N 51°31' E 002°02'1312.6
2014-Aug-21 16:33N 51°40' E 002°16'21411.0
2014-Aug-20 21:05N 54°50' E 005°02'1911.5
2014-Aug-20 19:26N 55°06' E 005°19'1011.5
2014-Aug-20 18:32N 55°15' E 005°28'1411.4
2014-Aug-20 17:17N 55°28' E 005°40'811.3
2014-Aug-20 16:33N 55°35' E 005°47'1111.1
2014-Aug-20 15:32N 55°45' E 005°57'1111.1
2014-Aug-20 14:32N 55°54' E 006°07'1111.1
2014-Aug-20 13:33N 56°04' E 006°16'4410.9
2014-Aug-20 09:30N 56°42' E 006°55'1110.7
2014-Aug-20 08:31N 56°51' E 007°04'116 9.5
2014-Aug-19 20:17N 57°56' E 010°03'7 9.8
2014-Aug-19 19:33N 57°60' E 010°15'1010.0
2014-Aug-19 18:33N 58°04' E 010°32'1110.7
2014-Aug-19 17:33N 58°09' E 010°50'1110.9
2014-Aug-19 16:33N 58°14' E 011°08'9 9.2
2014-Aug-19 15:33N 58°20' E 011°22'  
Track history (hours):
 
Tides and Currents Weather Stations Pressure Air Temp Water Temp Dewpoint Dewpoint Depression Visibility Wind Speed Wind Dir Waves Ship Positions

Minerva Anna

Last reported at 2014-Aug-29 05:07 UTC. Time now 2014-Aug-29 08:00 UTC.
Position N 28°08' W 015°25'.

Length 183 m; draft 12.5 m.

Type: Ship. MMSI: 240729000.

Date/timePositionNaut miles runAvg speedWind from/ knotsBaromVisibWave heightAir tempDewpointWater temp
2014-Aug-29 05:07N 28°08' W 015°25'  
2014-Aug-25 05:25N 39°19' W 011°46'  
2014-Aug-22 04:33N 50°25' W 000°27'2210.9
2014-Aug-22 02:33N 50°31' E 000°06'1211.8
2014-Aug-22 01:33N 50°34' E 000°24'1111.6
2014-Aug-22 00:33N 50°39' E 000°40'1111.2
2014-Aug-21 23:33N 50°46' E 000°54'1110.4
2014-Aug-21 22:33N 50°52' E 001°07'10 9.6
2014-Aug-21 21:32N 50°59' E 001°18'9 9.1
2014-Aug-21 20:33N 51°05' E 001°29'10 9.9
2014-Aug-21 19:33N 51°11' E 001°41'1111.1
2014-Aug-21 18:33N 51°20' E 001°51'1312.7
2014-Aug-21 17:33N 51°31' E 002°02'1312.6
2014-Aug-21 16:33N 51°40' E 002°16'21411.0
2014-Aug-20 21:05N 54°50' E 005°02'1911.5
2014-Aug-20 19:26N 55°06' E 005°19'1011.5
2014-Aug-20 18:32N 55°15' E 005°28'1411.4
2014-Aug-20 17:17N 55°28' E 005°40'811.3
2014-Aug-20 16:33N 55°35' E 005°47'1111.1
2014-Aug-20 15:32N 55°45' E 005°57'1111.1
2014-Aug-20 14:32N 55°54' E 006°07'1111.1
2014-Aug-20 13:33N 56°04' E 006°16'4410.9
2014-Aug-20 09:30N 56°42' E 006°55'1110.7
2014-Aug-20 08:31N 56°51' E 007°04'116 9.5
2014-Aug-19 20:17N 57°56' E 010°03'7 9.8
2014-Aug-19 19:33N 57°60' E 010°15'1010.0
2014-Aug-19 18:33N 58°04' E 010°32'1110.7
2014-Aug-19 17:33N 58°09' E 010°50'1110.9
2014-Aug-19 16:33N 58°14' E 011°08'9 9.2
2014-Aug-19 15:33N 58°20' E 011°22'  

Dump ship's entire track history